Terminal Aerodrome Forecast
Issued by NWS Cleveland, OH

Home | Current Version | Previous Version | Graphics & Text | Print | Product List | Glossary On
Versions: 1 2 3 4 5 6 7 8 9 10 11 12 13 14 15 16
000
FTUS41 KCLE 301401 AAB
TAFYNG
TAF AMD
KYNG 301401Z 3014/3112 VRB03KT 5SM BR VCSH SCT003 OVC050
      TEMPO 3014/3016 3SM -RA BR BKN003
     FM301600 21008KT P6SM BKN050 OVC150
     FM302000 23008KT P6SM VCTS BKN050CB
     FM310300 22004KT P6SM FEW150 SCT250
     FM310800 21004KT 4SM BR SCT250=

USA.gov is the U.S. government's official web portal to all federal, state and local government web resources and services.